createdAt,value
2023-01-21T00:00:16.593Z,25
2023-01-21T00:05:16.716Z,23
2023-01-21T00:10:16.723Z,26
2023-01-21T00:15:16.287Z,25
2023-01-21T00:20:16.940Z,25
2023-01-21T00:25:16.520Z,27
2023-01-21T00:30:16.777Z,26
2023-01-21T00:35:16.780Z,25
2023-01-21T00:40:17.851Z,26
2023-01-21T00:45:16.950Z,25
2023-01-21T00:50:16.765Z,25
2023-01-21T00:55:16.405Z,28
2023-01-21T01:00:16.770Z,24
2023-01-21T01:05:16.416Z,26
2023-01-21T01:10:16.630Z,25
2023-01-21T01:15:17.062Z,26
2023-01-21T01:20:16.670Z,26
2023-01-21T01:25:16.443Z,28
2023-01-21T01:30:16.819Z,23
2023-01-21T01:35:16.723Z,24
2023-01-21T01:40:16.829Z,26
2023-01-21T01:45:16.720Z,25
2023-01-21T01:50:16.874Z,25
2023-01-21T01:55:16.636Z,27
2023-01-21T02:00:17.084Z,25
2023-01-21T02:05:16.681Z,25
2023-01-21T02:10:16.838Z,23
2023-01-21T02:15:16.717Z,24
2023-01-21T02:20:16.932Z,24
2023-01-21T02:25:16.799Z,25
2023-01-21T02:30:17.284Z,25
2023-01-21T02:35:17.004Z,26
2023-01-21T02:40:18.568Z,22
2023-01-21T02:45:16.817Z,24
2023-01-21T02:50:16.998Z,26
2023-01-21T02:55:16.991Z,25
2023-01-21T03:00:17.306Z,24
2023-01-21T03:05:16.917Z,26
2023-01-21T03:10:17.014Z,25
2023-01-21T03:15:16.926Z,27
2023-01-21T03:20:17.115Z,24
2023-01-21T03:25:16.862Z,24
2023-01-21T03:30:17.358Z,25
2023-01-21T03:35:17.065Z,26
2023-01-21T03:40:17.202Z,26
2023-01-21T03:45:17.435Z,25
2023-01-21T03:50:17.113Z,26
2023-01-21T03:55:16.926Z,24
2023-01-21T04:00:17.352Z,24
2023-01-21T04:05:17.203Z,25
2023-01-21T04:10:17.290Z,24
2023-01-21T04:15:17.125Z,26
2023-01-21T04:20:17.240Z,24
2023-01-21T04:25:17.031Z,23
2023-01-21T04:30:17.357Z,24
2023-01-21T04:35:17.181Z,23
2023-01-21T04:40:18.435Z,23
2023-01-21T04:45:17.305Z,23
2023-01-21T04:50:17.334Z,23
2023-01-21T04:55:17.384Z,24
2023-01-21T05:00:18.876Z,24
2023-01-21T05:05:18.475Z,20
2023-01-21T05:10:18.795Z,23
2023-01-21T05:15:18.363Z,21
2023-01-21T05:20:18.661Z,22
2023-01-21T05:25:16.219Z,24
2023-01-21T05:30:16.501Z,26
2023-01-21T05:35:16.283Z,26
2023-01-21T05:40:16.508Z,23
2023-01-21T05:45:16.610Z,23
2023-01-21T05:50:16.510Z,26
2023-01-21T05:55:16.282Z,24
2023-01-21T06:00:16.828Z,23
2023-01-21T06:05:16.293Z,23
2023-01-21T06:10:16.458Z,24
2023-01-21T06:15:17.197Z,22
2023-01-21T06:20:16.592Z,23
2023-01-21T06:25:16.426Z,22
2023-01-21T06:30:16.607Z,21
2023-01-21T06:35:16.440Z,21
2023-01-21T06:40:17.861Z,22
2023-01-21T06:45:16.675Z,21
2023-01-21T06:50:16.861Z,23
2023-01-21T06:55:16.612Z,22
2023-01-21T07:00:16.993Z,23
2023-01-21T07:05:16.790Z,21
2023-01-21T07:10:17.004Z,24
2023-01-21T07:15:16.941Z,24
2023-01-21T07:20:16.388Z,21
2023-01-21T07:25:17.287Z,21
2023-01-21T07:30:17.312Z,23
2023-01-21T07:35:16.965Z,22
2023-01-21T07:40:16.488Z,25
2023-01-21T07:45:17.078Z,22
2023-01-21T07:50:16.519Z,22
2023-01-21T07:55:17.194Z,22
2023-01-21T08:00:16.585Z,23
2023-01-21T08:05:16.948Z,24
2023-01-21T08:10:16.515Z,22
2023-01-21T08:15:17.183Z,22
2023-01-21T08:20:16.651Z,23
2023-01-21T08:25:17.068Z,22
2023-01-21T08:30:16.893Z,24
2023-01-21T08:35:17.219Z,20
2023-01-21T08:40:19.345Z,21
2023-01-21T08:45:17.980Z,22
2023-01-21T08:50:16.709Z,19
2023-01-21T08:55:16.971Z,22
2023-01-21T09:00:16.961Z,23
2023-01-21T09:05:17.373Z,21
2023-01-21T09:10:16.748Z,22
2023-01-21T09:15:17.269Z,22
2023-01-21T09:20:16.786Z,22
2023-01-21T09:25:17.246Z,22
2023-01-21T09:30:16.940Z,22
2023-01-21T09:35:17.323Z,24
2023-01-21T09:40:16.995Z,23
2023-01-21T09:45:17.678Z,22
2023-01-21T09:50:17.063Z,24
2023-01-21T09:55:17.441Z,21
2023-01-21T10:00:17.297Z,21
2023-01-21T10:05:17.220Z,21
2023-01-21T10:10:16.990Z,18
2023-01-21T10:15:17.670Z,21
2023-01-21T10:20:16.997Z,19
2023-01-21T10:25:17.274Z,19
2023-01-21T10:30:17.027Z,20
2023-01-21T10:35:17.592Z,20
2023-01-21T10:40:17.809Z,23
2023-01-21T10:45:17.593Z,20
2023-01-21T10:50:17.347Z,19
2023-01-21T10:55:17.838Z,21
2023-01-21T11:00:17.158Z,21
2023-01-21T11:05:17.480Z,21
2023-01-21T11:10:17.172Z,22
2023-01-21T11:15:17.809Z,22
2023-01-21T11:20:17.193Z,20
2023-01-21T11:25:17.750Z,20
2023-01-21T11:30:37.264Z,19
2023-01-21T11:35:17.267Z,19
2023-01-21T11:40:20.394Z,18
2023-01-21T11:45:18.035Z,18
2023-01-21T11:50:17.627Z,20
2023-01-21T11:55:17.364Z,21
2023-01-21T12:00:17.705Z,19
2023-01-21T12:05:17.401Z,19
2023-01-21T12:10:17.607Z,19
2023-01-21T12:15:17.421Z,19
2023-01-21T12:20:17.522Z,21
2023-01-21T12:25:17.477Z,19
2023-01-21T12:30:18.565Z,19
2023-01-21T12:35:17.849Z,21
2023-01-21T12:40:18.381Z,21
2023-01-21T12:45:17.885Z,19
2023-01-21T12:50:17.421Z,22
2023-01-21T12:55:18.082Z,21
2023-01-21T13:00:17.815Z,20
2023-01-21T13:05:18.073Z,19
2023-01-21T13:10:17.846Z,22
2023-01-21T13:15:17.903Z,19
2023-01-21T13:20:17.800Z,20
2023-01-21T13:25:17.700Z,19
2023-01-21T13:30:17.935Z,16
2023-01-21T13:35:17.835Z,18
2023-01-21T13:40:18.054Z,17
2023-01-21T13:45:17.850Z,17
2023-01-21T13:50:18.189Z,17
2023-01-21T13:55:17.722Z,18
2023-01-21T14:00:18.114Z,19
2023-01-21T14:05:17.874Z,18
2023-01-21T14:10:18.223Z,18
2023-01-21T14:15:18.253Z,18
2023-01-21T14:20:18.052Z,21
2023-01-21T14:25:18.078Z,19
2023-01-21T14:30:18.044Z,18
2023-01-21T14:35:17.827Z,19
2023-01-21T14:40:19.380Z,18
2023-01-21T14:45:18.273Z,17
2023-01-21T14:50:17.846Z,16
2023-01-21T14:55:18.179Z,16
2023-01-21T15:00:17.977Z,18
2023-01-21T15:05:18.400Z,17
2023-01-21T15:10:17.718Z,17
2023-01-21T15:15:18.312Z,16
2023-01-21T15:20:17.788Z,17
2023-01-21T15:25:18.432Z,18
2023-01-21T15:30:17.895Z,17
2023-01-21T15:35:18.276Z,16
2023-01-21T15:40:17.880Z,17
2023-01-21T15:45:18.261Z,16
2023-01-21T15:50:18.057Z,16
2023-01-21T15:55:18.422Z,15
2023-01-21T16:00:18.249Z,14
2023-01-21T16:05:18.647Z,14
2023-01-21T16:10:18.323Z,15
2023-01-21T16:15:18.965Z,16
2023-01-21T16:20:18.107Z,15
2023-01-21T16:25:18.577Z,13
2023-01-21T16:30:18.172Z,13
2023-01-21T16:35:18.531Z,14
2023-01-21T16:40:18.919Z,14
2023-01-21T16:45:18.965Z,13
2023-01-21T16:50:18.004Z,13
2023-01-21T16:55:16.598Z,14
2023-01-21T17:00:16.483Z,16
2023-01-21T17:05:16.611Z,14
2023-01-21T17:10:16.184Z,13
2023-01-21T17:15:16.987Z,13
2023-01-21T17:20:16.289Z,12
2023-01-21T17:25:16.465Z,13
2023-01-21T17:30:16.811Z,13
2023-01-21T17:35:16.708Z,14
2023-01-21T17:40:16.222Z,13
2023-01-21T17:45:16.772Z,13
2023-01-21T17:50:16.254Z,12
2023-01-21T17:55:17.078Z,12
2023-01-21T18:00:16.456Z,14
2023-01-21T18:05:16.985Z,13
2023-01-21T18:10:16.460Z,13
2023-01-21T18:15:16.874Z,14
2023-01-21T18:20:16.928Z,13
2023-01-21T18:25:16.947Z,14
2023-01-21T18:30:16.497Z,12
2023-01-21T18:35:16.850Z,15
2023-01-21T18:40:17.362Z,14
2023-01-21T18:45:17.088Z,15
2023-01-21T18:50:16.820Z,16
2023-01-21T18:55:17.181Z,17
2023-01-21T19:00:16.549Z,14
2023-01-21T19:05:17.357Z,12
2023-01-21T19:10:16.962Z,11
2023-01-21T19:15:16.960Z,14
2023-01-21T19:20:16.956Z,16
2023-01-21T19:25:16.646Z,17
2023-01-21T19:30:17.067Z,14
2023-01-21T19:35:16.665Z,18
2023-01-21T19:40:16.975Z,13
2023-01-21T19:45:16.862Z,14
2023-01-21T19:50:17.162Z,18
2023-01-21T19:55:16.733Z,17
2023-01-21T20:00:18.009Z,17
2023-01-21T20:05:16.727Z,17
2023-01-21T20:10:16.713Z,16
2023-01-21T20:15:17.551Z,15
2023-01-21T20:20:16.730Z,14
2023-01-21T20:25:17.516Z,12
2023-01-21T20:30:16.931Z,15
2023-01-21T20:35:16.817Z,16
2023-01-21T20:40:17.759Z,17
2023-01-21T20:45:17.289Z,16
2023-01-21T20:50:16.839Z,16
2023-01-21T20:55:19.761Z,11
2023-01-21T21:00:17.172Z,12
2023-01-21T21:05:17.209Z,15
2023-01-21T21:10:17.041Z,16
2023-01-21T21:15:17.695Z,15
2023-01-21T21:20:17.318Z,14
2023-01-21T21:25:17.571Z,14
2023-01-21T21:30:17.029Z,15
2023-01-21T21:35:17.816Z,11
2023-01-21T21:40:16.938Z,11
2023-01-21T21:45:17.468Z,11
2023-01-21T21:50:17.100Z,13
2023-01-21T21:55:17.512Z,12
2023-01-21T22:00:16.997Z,11
2023-01-21T22:05:17.463Z,10
2023-01-21T22:10:17.334Z,11
2023-01-21T22:15:17.537Z,11
2023-01-21T22:20:17.234Z,10
2023-01-21T22:25:17.623Z,10
2023-01-21T22:30:17.401Z,10
2023-01-21T22:35:17.716Z,10
2023-01-21T22:40:18.600Z,10
2023-01-21T22:45:19.853Z,10
2023-01-21T22:50:17.152Z,8
2023-01-21T22:55:17.476Z,9
2023-01-21T23:00:17.192Z,8
2023-01-21T23:05:17.895Z,10
2023-01-21T23:10:17.603Z,8
2023-01-21T23:15:17.609Z,10
2023-01-21T23:20:17.490Z,11
2023-01-21T23:25:17.274Z,11
2023-01-21T23:30:17.629Z,12
2023-01-21T23:35:17.358Z,12
2023-01-21T23:40:17.611Z,11
2023-01-21T23:45:18.502Z,12
2023-01-21T23:50:17.708Z,13
2023-01-21T23:55:17.398Z,12
